Tarpon Springs, Florida
Current Conditions -  °F | °C
As of 11:15 AM on Wednesday 22 Oct 2014 (Local Time) from KCLW Reporting Station
Clear Clear  
Wind Chill: 77°   Ceiling: Unl
Heat Index: 79°   Visibility: 10mi
Dew Point: 59°   Wind: 7mph
Humidity: 54%   Direction: 70°ENE
Pressure: 30"   Gusts: NA
Location:  28.15°N, 82.75°W
Report Text: KCLW 221515Z AUTO 07006KT 10SM CLR 25/15 A3000 RMK AO2
Loading
Personal Weather Stations






























Interactive Weather Map
Tropical Storm Tracking
New forecast layout! Learn more

10-Day Weather Forecast

Advertisements
Track Severe Weather on mobile